createdAt,value
2018-12-11T00:00:38.906Z,1.84
2018-12-11T00:10:58.396Z,1.76
2018-12-11T00:21:18.135Z,1.79
2018-12-11T00:31:36.931Z,1.81
2018-12-11T00:41:55.986Z,1.74
2018-12-11T00:52:14.758Z,1.83
2018-12-11T01:02:33.842Z,1.82
2018-12-11T01:12:56.618Z,1.86
2018-12-11T01:23:16.131Z,1.89
2018-12-11T01:33:34.599Z,1.95
2018-12-11T01:43:53.808Z,1.98
2018-12-11T01:54:14.438Z,1.81
2018-12-11T02:04:33.171Z,1.68
2018-12-11T02:14:52.182Z,1.75
2018-12-11T02:25:11.585Z,1.85
2018-12-11T02:35:30.377Z,1.92
2018-12-11T02:45:49.176Z,1.89
2018-12-11T02:56:08.663Z,1.75
2018-12-11T03:06:27.854Z,1.88
2018-12-11T03:16:46.087Z,2.05
2018-12-11T03:27:05.819Z,2.05
2018-12-11T03:37:25.225Z,2.12
2018-12-11T03:47:43.830Z,1.74
2018-12-11T03:58:02.730Z,1.56
2018-12-11T04:08:21.770Z,1.65
2018-12-11T04:18:40.382Z,1.75
2018-12-11T04:29:00.130Z,1.66
2018-12-11T04:39:19.311Z,1.51
2018-12-11T04:49:37.575Z,1.44
2018-12-11T04:59:56.570Z,1.32
2018-12-11T05:10:15.395Z,1.54
2018-12-11T05:20:33.969Z,1.72
2018-12-11T05:30:52.601Z,1.67
2018-12-11T05:41:11.839Z,1.81
2018-12-11T05:51:31.108Z,1.79
2018-12-11T06:01:50.624Z,1.84
2018-12-11T06:12:09.270Z,1.89
2018-12-11T06:22:28.319Z,1.90
2018-12-11T06:32:47.184Z,1.86
2018-12-11T06:43:07.300Z,1.98
2018-12-11T06:53:27.753Z,1.97
2018-12-11T07:03:46.501Z,2.08
2018-12-11T07:14:06.252Z,2.04
2018-12-11T07:24:25.594Z,2.14
2018-12-11T07:34:47.190Z,2.14
2018-12-11T07:45:07.203Z,2.25
2018-12-11T07:55:26.693Z,2.31
2018-12-11T08:05:45.652Z,2.08
2018-12-11T08:16:04.942Z,2.14
2018-12-11T08:26:23.470Z,1.94
2018-12-11T08:36:43.009Z,2.02
2018-12-11T08:47:02.530Z,2.01
2018-12-11T08:57:21.450Z,1.92
2018-12-11T09:07:40.778Z,1.92
2018-12-11T09:17:59.190Z,1.97
2018-12-11T09:28:18.130Z,1.85
2018-12-11T09:38:37.583Z,1.81
2018-12-11T09:48:56.850Z,1.76
2018-12-11T09:59:16.229Z,1.86
2018-12-11T10:09:35.402Z,1.46
2018-12-11T10:19:53.920Z,1.96
2018-12-11T10:30:14.839Z,2.04
2018-12-11T10:40:33.699Z,1.98
2018-12-11T10:50:52.291Z,1.80
2018-12-11T11:01:21.855Z,1.91
2018-12-11T11:11:39.792Z,1.92
2018-12-11T11:21:58.420Z,2.10
2018-12-11T11:32:17.350Z,2.27
2018-12-11T11:42:36.520Z,2.33
2018-12-11T11:52:56.159Z,2.48
2018-12-11T12:03:15.973Z,2.62
2018-12-11T12:13:35.550Z,2.59
2018-12-11T12:23:54.531Z,2.74
2018-12-11T12:34:14.549Z,2.62
2018-12-11T12:44:34.381Z,2.40
2018-12-11T12:54:53.583Z,2.38
2018-12-11T13:05:12.612Z,2.46
2018-12-11T13:15:31.392Z,2.27
2018-12-11T13:25:50.572Z,2.28
2018-12-11T13:36:10.859Z,2.51
2018-12-11T13:46:30.279Z,2.56
2018-12-11T13:56:49.431Z,2.38
2018-12-11T14:07:10.784Z,2.25
2018-12-11T14:17:31.490Z,1.88
2018-12-11T14:27:59.781Z,1.99
2018-12-11T14:38:18.819Z,2.01
2018-12-11T14:48:38.980Z,2.04
2018-12-11T14:58:57.491Z,2.05
2018-12-11T15:09:34.710Z,1.89
2018-12-11T15:19:53.659Z,1.83
2018-12-11T15:30:12.919Z,1.63
2018-12-11T15:40:35.550Z,1.69
2018-12-11T15:50:54.319Z,1.82
2018-12-11T16:01:14.186Z,1.90
2018-12-11T16:11:33.803Z,1.98
2018-12-11T16:21:54.290Z,2.07
2018-12-11T16:32:14.861Z,2.06
2018-12-11T16:42:37.325Z,2.09
2018-12-11T16:52:56.770Z,2.11
2018-12-11T17:03:17.032Z,2.13
2018-12-11T17:13:37.400Z,2.08
2018-12-11T17:23:57.871Z,2.26
2018-12-11T17:34:17.992Z,2.26
2018-12-11T17:44:38.517Z,2.24
2018-12-11T17:54:59.033Z,2.11
2018-12-11T18:05:20.216Z,2.19
2018-12-11T18:15:41.014Z,2.05
2018-12-11T18:26:02.982Z,2.07
2018-12-11T18:36:23.743Z,2.01
2018-12-11T18:46:44.996Z,2.02
2018-12-11T18:57:08.683Z,1.72
2018-12-11T19:07:32.634Z,1.78
2018-12-11T19:17:58.598Z,1.74
2018-12-11T19:28:24.421Z,1.78
2018-12-11T19:38:46.208Z,1.83
2018-12-11T19:49:07.345Z,1.72
2018-12-11T19:59:32.072Z,1.72
2018-12-11T20:10:11.868Z,1.79
2018-12-11T20:20:36.635Z,1.77
2018-12-11T20:30:59.193Z,1.85
2018-12-11T20:41:44.881Z,1.76
2018-12-11T20:52:13.472Z,1.94
2018-12-11T21:02:40.882Z,1.93
2018-12-11T21:13:03.977Z,1.93
2018-12-11T21:23:25.245Z,1.88
2018-12-11T21:33:50.185Z,1.86
2018-12-11T21:44:10.186Z,1.92
2018-12-11T21:54:29.988Z,1.99
2018-12-11T22:04:50.780Z,2.04
2018-12-11T22:15:11.530Z,2.04
2018-12-11T22:25:31.072Z,2.00
2018-12-11T22:35:52.428Z,1.78
2018-12-11T22:46:12.659Z,1.84
2018-12-11T22:56:30.852Z,1.91
2018-12-11T23:06:50.659Z,1.74
2018-12-11T23:17:10.724Z,1.88
2018-12-11T23:27:29.368Z,1.72
2018-12-11T23:37:49.799Z,1.88
2018-12-11T23:48:08.543Z,1.83
2018-12-11T23:58:27.126Z,1.95
